createdAt,value
2022-09-09T00:02:21.969Z,12.20
2022-09-09T00:04:54.938Z,12.20
2022-09-09T00:07:31.508Z,12.20
2022-09-09T00:10:07.279Z,12.20
2022-09-09T00:12:33.935Z,12.20
2022-09-09T00:15:03.790Z,12.20
2022-09-09T00:17:34.661Z,12.20
2022-09-09T00:20:04.257Z,12.30
2022-09-09T00:22:32.454Z,12.30
2022-09-09T00:25:19.394Z,12.30
2022-09-09T00:27:47.424Z,12.20
2022-09-09T00:30:20.712Z,12.10
2022-09-09T00:32:48.343Z,12.10
2022-09-09T00:35:22.718Z,12.00
2022-09-09T00:37:51.160Z,12.00
2022-09-09T00:40:23.471Z,12.00
2022-09-09T00:42:53.463Z,11.90
2022-09-09T00:45:38.734Z,11.90
2022-09-09T00:48:11.197Z,11.90
2022-09-09T00:50:56.380Z,12.00
2022-09-09T00:53:26.098Z,12.00
2022-09-09T00:56:02.062Z,12.00
2022-09-09T00:58:29.009Z,12.00
2022-09-09T01:01:09.449Z,12.00
2022-09-09T01:03:37.538Z,12.00
2022-09-09T01:06:15.498Z,12.10
2022-09-09T01:08:47.195Z,12.00
2022-09-09T01:11:37.284Z,12.00
2022-09-09T01:14:22.490Z,12.00
2022-09-09T01:16:49.769Z,12.00
2022-09-09T01:19:21.019Z,11.90
2022-09-09T01:22:14.031Z,11.90
2022-09-09T01:25:03.704Z,11.80
2022-09-09T01:27:31.012Z,11.80
2022-09-09T01:29:58.516Z,11.80
2022-09-09T01:32:42.670Z,11.80
2022-09-09T01:35:12.928Z,11.70
2022-09-09T01:37:39.756Z,11.70
2022-09-09T01:40:06.819Z,11.70
2022-09-09T01:42:33.506Z,11.70
2022-09-09T01:45:00.198Z,11.70
2022-09-09T01:47:26.878Z,11.70
2022-09-09T01:49:53.629Z,11.70
2022-09-09T01:52:20.413Z,11.60
2022-09-09T01:54:47.199Z,11.70
2022-09-09T01:57:21.081Z,11.70
2022-09-09T02:00:10.505Z,11.70
2022-09-09T02:02:40.077Z,11.70
2022-09-09T02:05:12.794Z,11.80
2022-09-09T02:07:39.463Z,11.70
2022-09-09T02:10:08.907Z,11.70
2022-09-09T02:12:36.999Z,11.70
2022-09-09T02:15:12.253Z,11.60
2022-09-09T02:17:39.389Z,11.60
2022-09-09T02:20:09.196Z,11.60
2022-09-09T02:22:38.403Z,11.60
2022-09-09T02:25:06.602Z,11.70
2022-09-09T02:27:33.509Z,11.80
2022-09-09T02:30:03.108Z,11.80
2022-09-09T02:32:31.916Z,11.70
2022-09-09T02:35:01.597Z,11.70
2022-09-09T02:37:30.684Z,11.70
2022-09-09T02:39:57.576Z,11.70
2022-09-09T02:42:24.947Z,11.60
2022-09-09T02:44:51.739Z,11.50
2022-09-09T02:47:24.532Z,11.50
2022-09-09T02:49:51.202Z,11.60
2022-09-09T02:52:36.792Z,11.60
2022-09-09T02:55:10.006Z,11.50
2022-09-09T02:57:37.095Z,11.60
2022-09-09T03:00:05.047Z,11.60
2022-09-09T03:02:31.739Z,11.60
2022-09-09T03:04:59.199Z,11.50
2022-09-09T03:07:25.935Z,11.50
2022-09-09T03:09:56.082Z,11.50
2022-09-09T03:12:22.848Z,11.40
2022-09-09T03:14:49.729Z,11.40
2022-09-09T03:17:16.778Z,11.30
2022-09-09T03:19:43.452Z,11.30
2022-09-09T03:22:11.309Z,11.30
2022-09-09T03:24:38.228Z,11.30
2022-09-09T03:27:05.052Z,11.30
2022-09-09T03:29:31.774Z,11.30
2022-09-09T03:31:58.518Z,11.30
2022-09-09T03:34:25.299Z,11.40
2022-09-09T03:36:51.946Z,11.50
2022-09-09T03:39:18.614Z,11.50
2022-09-09T03:41:49.389Z,11.50
2022-09-09T03:44:16.134Z,11.50
2022-09-09T03:46:42.814Z,11.60
2022-09-09T03:49:11.275Z,11.50
2022-09-09T03:51:39.363Z,11.60
2022-09-09T03:54:09.108Z,11.60
2022-09-09T03:56:36.480Z,11.60
2022-09-09T03:59:03.698Z,11.50
2022-09-09T04:01:30.617Z,11.50
2022-09-09T04:03:59.156Z,11.60
2022-09-09T04:06:26.259Z,11.50
2022-09-09T04:08:53.602Z,11.50
2022-09-09T04:11:20.904Z,11.50
2022-09-09T04:13:47.590Z,11.40
2022-09-09T04:16:14.564Z,11.50
2022-09-09T04:18:41.550Z,11.60
2022-09-09T04:21:09.424Z,11.60
2022-09-09T04:23:37.130Z,11.60
2022-09-09T04:26:05.092Z,11.50
2022-09-09T04:28:32.752Z,11.50
2022-09-09T04:31:05.576Z,11.60
2022-09-09T04:33:35.076Z,11.60
2022-09-09T04:36:03.938Z,11.60
2022-09-09T04:38:30.626Z,11.70
2022-09-09T04:40:58.073Z,11.70
2022-09-09T04:43:26.815Z,11.90
2022-09-09T04:45:53.611Z,11.90
2022-09-09T04:48:20.900Z,11.80
2022-09-09T04:50:57.736Z,11.80
2022-09-09T04:53:24.718Z,11.80
2022-09-09T04:55:51.731Z,11.90
2022-09-09T04:58:18.425Z,11.90
2022-09-09T05:00:45.227Z,11.90
2022-09-09T05:03:13.666Z,12.00
2022-09-09T05:05:40.416Z,12.00
2022-09-09T05:08:09.083Z,12.10
2022-09-09T05:10:38.084Z,12.00
2022-09-09T05:13:05.723Z,12.10
2022-09-09T05:15:32.377Z,12.10
2022-09-09T05:18:00.313Z,12.10
2022-09-09T05:20:27.287Z,12.10
2022-09-09T05:22:57.510Z,12.30
2022-09-09T05:25:27.026Z,12.20
2022-09-09T05:27:54.816Z,12.20
2022-09-09T05:30:23.198Z,12.30
2022-09-09T05:32:50.030Z,12.30
2022-09-09T05:35:17.339Z,12.40
2022-09-09T05:37:44.089Z,12.40
2022-09-09T05:40:11.983Z,12.50
2022-09-09T05:42:40.048Z,12.60
2022-09-09T05:45:08.757Z,12.70
2022-09-09T05:47:36.369Z,12.70
2022-09-09T05:50:03.250Z,12.80
2022-09-09T05:52:30.252Z,12.80
2022-09-09T05:54:58.063Z,12.80
2022-09-09T05:57:24.689Z,12.90
2022-09-09T05:59:51.422Z,13.00
2022-09-09T06:02:18.329Z,13.10
2022-09-09T06:04:45.026Z,13.30
2022-09-09T06:07:11.655Z,13.50
2022-09-09T06:09:38.259Z,13.80
2022-09-09T06:12:05.219Z,13.90
2022-09-09T06:14:31.965Z,14.00
2022-09-09T06:16:58.643Z,14.10
2022-09-09T06:19:27.476Z,14.20
2022-09-09T06:21:54.126Z,14.40
2022-09-09T06:24:21.059Z,14.40
2022-09-09T06:26:47.726Z,14.50
2022-09-09T06:29:14.366Z,14.60
2022-09-09T06:31:42.457Z,14.70
2022-09-09T06:34:09.716Z,14.70
2022-09-09T06:36:38.062Z,14.80
2022-09-09T06:39:05.340Z,14.90
2022-09-09T06:41:34.018Z,14.90
2022-09-09T06:44:00.688Z,14.90
2022-09-09T06:46:29.019Z,15.00
2022-09-09T06:49:00.916Z,15.00
2022-09-09T06:51:29.013Z,15.10
2022-09-09T06:53:56.451Z,15.20
2022-09-09T06:56:36.471Z,15.30
2022-09-09T06:59:05.663Z,15.40
2022-09-09T07:01:33.446Z,15.50
2022-09-09T07:04:00.506Z,15.50
2022-09-09T07:06:28.570Z,15.60
2022-09-09T07:08:57.014Z,15.70
2022-09-09T07:11:24.577Z,15.80
2022-09-09T07:13:53.022Z,16.00
2022-09-09T07:16:21.579Z,16.00
2022-09-09T07:18:48.256Z,16.10
2022-09-09T07:21:15.238Z,16.20
2022-09-09T07:23:42.249Z,16.30
2022-09-09T07:26:13.224Z,16.40
2022-09-09T07:28:40.276Z,16.50
2022-09-09T07:31:07.436Z,16.60
2022-09-09T07:33:35.229Z,16.60
2022-09-09T07:36:06.879Z,16.70
2022-09-09T07:38:38.320Z,16.70
2022-09-09T07:41:06.644Z,16.80
2022-09-09T07:43:34.258Z,16.80
2022-09-09T07:46:04.532Z,16.90
2022-09-09T07:48:31.255Z,17.00
2022-09-09T07:51:07.730Z,17.10
2022-09-09T07:53:35.617Z,17.20
2022-09-09T07:56:06.705Z,17.30
2022-09-09T07:58:38.177Z,17.40
2022-09-09T08:01:09.621Z,17.40
2022-09-09T08:03:36.418Z,17.40
2022-09-09T08:06:04.039Z,17.40
2022-09-09T08:08:30.998Z,17.40
2022-09-09T08:11:08.488Z,17.50
2022-09-09T08:13:36.514Z,17.60
2022-09-09T08:16:13.623Z,17.70
2022-09-09T08:18:40.422Z,17.80
2022-09-09T08:21:12.882Z,17.90
2022-09-09T08:23:43.052Z,18.00
2022-09-09T08:26:11.991Z,18.00
2022-09-09T08:28:38.924Z,18.10
2022-09-09T08:31:06.896Z,18.20
2022-09-09T08:33:34.546Z,18.30
2022-09-09T08:36:01.437Z,18.30
2022-09-09T08:38:29.624Z,18.40
2022-09-09T08:41:02.086Z,18.50
2022-09-09T08:43:29.990Z,18.50
2022-09-09T08:46:01.130Z,18.70
2022-09-09T08:48:38.224Z,18.80
2022-09-09T08:51:08.264Z,18.80
2022-09-09T08:53:47.536Z,18.90
2022-09-09T08:56:15.517Z,18.90
2022-09-09T08:58:47.725Z,18.90
2022-09-09T09:01:17.417Z,18.90
2022-09-09T09:04:02.558Z,18.90
2022-09-09T09:06:34.487Z,18.80
2022-09-09T09:09:03.091Z,18.80
2022-09-09T09:11:37.352Z,18.70
2022-09-09T09:14:06.798Z,18.70
2022-09-09T09:16:35.233Z,18.60
2022-09-09T09:19:01.976Z,18.60
2022-09-09T09:21:44.754Z,18.60
2022-09-09T09:24:33.544Z,18.50
2022-09-09T09:27:08.237Z,18.50
2022-09-09T09:29:50.533Z,18.50
2022-09-09T09:32:23.746Z,18.60
2022-09-09T09:34:52.848Z,18.60
2022-09-09T09:37:24.773Z,18.50
2022-09-09T09:40:06.745Z,18.60
2022-09-09T09:42:33.448Z,18.60
2022-09-09T09:45:15.872Z,18.60
2022-09-09T09:47:42.715Z,18.60
2022-09-09T09:50:20.441Z,18.70
2022-09-09T09:52:54.971Z,18.60
2022-09-09T09:55:21.824Z,18.70
2022-09-09T09:57:48.458Z,18.70
2022-09-09T10:00:21.714Z,18.70
2022-09-09T10:02:48.987Z,18.70
2022-09-09T10:05:23.216Z,18.70
2022-09-09T10:08:03.347Z,18.80
2022-09-09T10:10:36.519Z,18.80
2022-09-09T10:13:15.969Z,18.80
2022-09-09T10:15:51.287Z,18.90
2022-09-09T10:18:26.587Z,18.90
2022-09-09T10:21:13.549Z,19.00
2022-09-09T10:23:52.202Z,19.00
2022-09-09T10:26:24.758Z,19.10
2022-09-09T10:29:09.658Z,19.10
2022-09-09T10:31:53.828Z,19.20
2022-09-09T10:34:46.337Z,19.20
2022-09-09T10:37:24.531Z,19.30
2022-09-09T10:39:54.738Z,19.50
2022-09-09T10:42:28.289Z,19.60
2022-09-09T10:45:00.502Z,19.70
2022-09-09T10:47:54.196Z,19.80
2022-09-09T10:53:37.643Z,19.80
2022-09-09T10:56:07.685Z,19.90
2022-09-09T10:58:42.366Z,19.80
2022-09-09T11:01:17.299Z,19.90
2022-09-09T11:03:44.355Z,20.10
2022-09-09T11:06:15.483Z,20.50
2022-09-09T11:08:42.584Z,20.70
2022-09-09T11:11:22.214Z,20.80
2022-09-09T11:14:00.802Z,20.90
2022-09-09T11:16:27.510Z,20.80
2022-09-09T11:19:05.677Z,20.70
2022-09-09T11:21:35.491Z,20.60
2022-09-09T11:24:05.651Z,20.40
2022-09-09T11:26:40.222Z,20.20
2022-09-09T11:29:24.152Z,20.10
2022-09-09T11:32:22.440Z,20.00
2022-09-09T11:34:57.820Z,19.90
2022-09-09T11:37:42.445Z,19.70
2022-09-09T11:40:20.602Z,19.70
2022-09-09T11:42:50.910Z,19.80
2022-09-09T11:45:24.883Z,19.80
2022-09-09T11:47:55.754Z,19.90
2022-09-09T11:50:22.356Z,20.20
2022-09-09T11:52:50.550Z,20.20
2022-09-09T11:55:31.669Z,20.30
2022-09-09T11:57:59.312Z,20.50
2022-09-09T12:00:38.983Z,20.80
2022-09-09T12:03:06.744Z,20.90
2022-09-09T12:05:41.871Z,21.20
2022-09-09T12:08:10.641Z,21.40
2022-09-09T12:10:41.096Z,21.60
2022-09-09T12:13:21.630Z,21.70
2022-09-09T12:15:53.779Z,21.80
2022-09-09T12:18:24.671Z,21.80
2022-09-09T12:21:17.886Z,21.70
2022-09-09T12:23:50.241Z,21.70
2022-09-09T12:26:23.062Z,21.50
2022-09-09T12:28:49.751Z,21.40
2022-09-09T12:31:23.201Z,21.30
2022-09-09T12:33:49.803Z,21.20
2022-09-09T12:36:20.370Z,21.10
2022-09-09T12:38:47.506Z,21.10
2022-09-09T12:41:24.152Z,21.10
2022-09-09T12:43:51.834Z,21.00
2022-09-09T12:46:33.001Z,21.00
2022-09-09T12:48:59.772Z,21.10
2022-09-09T12:51:31.084Z,21.00
2022-09-09T12:53:58.950Z,21.10
2022-09-09T12:56:30.560Z,21.00
2022-09-09T12:58:58.202Z,20.90
2022-09-09T13:01:26.524Z,20.80
2022-09-09T13:03:54.002Z,20.70
2022-09-09T13:06:34.423Z,20.70
2022-09-09T13:09:02.396Z,20.70
2022-09-09T13:11:43.643Z,20.80
2022-09-09T13:14:21.184Z,20.90
2022-09-09T13:16:58.250Z,20.90
2022-09-09T13:19:29.842Z,21.10
2022-09-09T13:21:56.463Z,21.10
2022-09-09T13:24:29.611Z,21.20
2022-09-09T13:27:02.784Z,21.10
2022-09-09T13:29:30.558Z,21.10
2022-09-09T13:32:07.422Z,21.10
2022-09-09T13:34:36.362Z,21.10
2022-09-09T13:37:04.727Z,21.10
2022-09-09T13:39:31.579Z,21.20
2022-09-09T13:41:58.771Z,21.30
2022-09-09T13:44:28.074Z,21.40
2022-09-09T13:47:04.811Z,21.40
2022-09-09T13:49:34.830Z,21.60
2022-09-09T13:52:10.785Z,21.60
2022-09-09T13:54:37.488Z,21.60
2022-09-09T13:57:05.666Z,21.50
2022-09-09T14:00:04.189Z,21.50
2022-09-09T14:02:19.629Z,21.50
2022-09-09T14:04:46.270Z,21.40
2022-09-09T14:07:14.250Z,21.30
2022-09-09T14:09:41.490Z,21.30
2022-09-09T14:12:16.019Z,21.20
2022-09-09T14:14:43.466Z,20.90
2022-09-09T14:17:10.604Z,20.80
2022-09-09T14:19:38.173Z,20.70
2022-09-09T14:22:05.084Z,20.70
2022-09-09T14:24:31.917Z,20.70
2022-09-09T14:26:58.528Z,20.50
2022-09-09T14:29:27.726Z,20.50
2022-09-09T14:31:54.474Z,20.30
2022-09-09T14:34:21.191Z,20.20
2022-09-09T14:36:48.394Z,20.00
2022-09-09T14:39:15.055Z,20.00
2022-09-09T14:41:41.676Z,19.90
2022-09-09T14:44:09.145Z,19.80
2022-09-09T14:46:35.853Z,19.80
2022-09-09T14:49:02.528Z,19.70
2022-09-09T14:51:29.267Z,19.80
2022-09-09T14:53:58.235Z,19.70
2022-09-09T14:56:27.237Z,19.50
2022-09-09T14:58:54.702Z,19.40
2022-09-09T15:01:24.214Z,19.30
2022-09-09T15:03:52.383Z,19.20
2022-09-09T15:06:19.618Z,19.20
2022-09-09T15:08:46.322Z,19.00
2022-09-09T15:11:13.766Z,18.90
2022-09-09T15:13:41.453Z,18.90
2022-09-09T15:16:09.128Z,18.80
2022-09-09T15:18:37.257Z,18.70
2022-09-09T15:21:05.996Z,18.60
2022-09-09T15:23:36.188Z,18.60
2022-09-09T15:26:03.365Z,18.60
2022-09-09T15:28:30.278Z,18.50
2022-09-09T15:30:57.862Z,18.50
2022-09-09T15:33:24.539Z,18.60
2022-09-09T15:35:51.665Z,18.70
2022-09-09T15:38:18.576Z,19.00
2022-09-09T15:40:45.350Z,19.30
2022-09-09T15:43:12.250Z,19.60
2022-09-09T15:45:38.839Z,19.70
2022-09-09T15:48:05.770Z,19.70
2022-09-09T15:50:33.440Z,19.60
2022-09-09T15:53:00.684Z,19.60
2022-09-09T15:55:27.441Z,19.50
2022-09-09T15:57:54.130Z,19.40
2022-09-09T16:00:20.921Z,19.30
2022-09-09T16:02:48.089Z,19.20
2022-09-09T16:05:14.902Z,19.10
2022-09-09T16:07:43.317Z,19.10
2022-09-09T16:10:10.557Z,19.00
2022-09-09T16:12:37.674Z,19.10
2022-09-09T16:15:04.720Z,19.00
2022-09-09T16:17:31.462Z,18.90
2022-09-09T16:19:58.635Z,18.80
2022-09-09T16:22:25.580Z,18.70
2022-09-09T16:24:52.301Z,18.70
2022-09-09T16:27:19.117Z,18.70
2022-09-09T16:29:46.397Z,18.50
2022-09-09T16:32:13.163Z,18.40
2022-09-09T16:34:39.806Z,18.40
2022-09-09T16:37:06.510Z,18.40
2022-09-09T16:39:33.216Z,18.30
2022-09-09T16:42:00.824Z,18.20
2022-09-09T16:44:27.506Z,18.20
2022-09-09T16:46:59.588Z,18.10
2022-09-09T16:49:28.151Z,18.00
2022-09-09T16:51:54.893Z,17.90
2022-09-09T16:54:22.985Z,17.80
2022-09-09T16:56:49.708Z,17.80
2022-09-09T16:59:17.691Z,17.70
2022-09-09T17:01:45.398Z,17.60
2022-09-09T17:04:14.770Z,17.60
2022-09-09T17:06:42.404Z,17.40
2022-09-09T17:09:10.350Z,17.40
2022-09-09T17:11:38.137Z,17.40
2022-09-09T17:14:05.086Z,17.30
2022-09-09T17:16:32.678Z,17.20
2022-09-09T17:19:05.235Z,17.20
2022-09-09T17:21:32.955Z,17.10
2022-09-09T17:23:59.646Z,17.00
2022-09-09T17:26:28.061Z,17.00
2022-09-09T17:28:59.466Z,16.90
2022-09-09T17:31:27.317Z,16.90
2022-09-09T17:33:54.201Z,16.80
2022-09-09T17:36:23.222Z,16.70
2022-09-09T17:38:50.253Z,16.70
2022-09-09T17:41:27.472Z,16.60
2022-09-09T17:43:55.527Z,16.50
2022-09-09T17:46:23.899Z,16.40
2022-09-09T17:48:51.955Z,16.30
2022-09-09T17:51:21.250Z,16.30
2022-09-09T17:53:49.313Z,16.20
2022-09-09T17:56:17.374Z,16.10
2022-09-09T17:58:45.276Z,16.10
2022-09-09T18:01:13.225Z,16.10
2022-09-09T18:03:47.457Z,16.00
2022-09-09T18:06:16.421Z,16.00
2022-09-09T18:08:43.518Z,16.00
2022-09-09T18:11:10.249Z,15.90
2022-09-09T18:13:37.054Z,15.90
2022-09-09T18:16:07.295Z,15.80
2022-09-09T18:18:34.135Z,15.80
2022-09-09T18:21:02.423Z,15.70
2022-09-09T18:23:30.059Z,15.70
2022-09-09T18:25:58.935Z,15.60
2022-09-09T18:28:28.943Z,15.60
2022-09-09T18:30:55.679Z,15.60
2022-09-09T18:33:22.447Z,15.50
2022-09-09T18:35:49.148Z,15.40
2022-09-09T18:38:17.585Z,15.40
2022-09-09T18:40:44.241Z,15.40
2022-09-09T18:43:12.838Z,15.30
2022-09-09T18:45:39.494Z,15.30
2022-09-09T18:48:06.357Z,15.30
2022-09-09T18:50:33.867Z,15.40
2022-09-09T18:53:00.596Z,15.40
2022-09-09T18:55:29.068Z,15.40
2022-09-09T18:57:58.784Z,15.40
2022-09-09T19:00:25.755Z,15.20
2022-09-09T19:02:52.967Z,15.20
2022-09-09T19:05:19.604Z,15.20
2022-09-09T19:07:46.246Z,15.20
2022-09-09T19:10:13.431Z,15.20
2022-09-09T19:12:41.531Z,15.20
2022-09-09T19:15:08.483Z,15.20
2022-09-09T19:17:36.694Z,15.30
2022-09-09T19:20:04.072Z,15.20
2022-09-09T19:22:31.069Z,15.30
2022-09-09T19:24:59.214Z,15.30
2022-09-09T19:27:27.338Z,15.30
2022-09-09T19:29:57.030Z,15.30
2022-09-09T19:35:11.290Z,15.30
2022-09-09T19:37:38.394Z,15.40
2022-09-09T19:40:07.711Z,15.30
2022-09-09T19:42:34.492Z,15.30
2022-09-09T19:45:01.425Z,15.30
2022-09-09T19:47:28.646Z,15.30
2022-09-09T19:49:55.319Z,15.30
2022-09-09T19:52:22.320Z,15.30
2022-09-09T19:54:49.062Z,15.30
2022-09-09T19:57:16.163Z,15.30
2022-09-09T19:59:42.838Z,15.30
2022-09-09T20:02:12.109Z,15.30
2022-09-09T20:04:38.847Z,15.30
2022-09-09T20:07:05.526Z,15.40
2022-09-09T20:09:32.307Z,15.50
2022-09-09T20:11:59.570Z,15.50
2022-09-09T20:14:26.524Z,15.40
2022-09-09T20:16:53.220Z,15.40
2022-09-09T20:19:19.973Z,15.30
2022-09-09T20:21:49.296Z,15.20
2022-09-09T20:24:18.413Z,15.20
2022-09-09T20:26:46.574Z,15.10
2022-09-09T20:29:16.404Z,15.10
2022-09-09T20:31:43.939Z,15.00
2022-09-09T20:34:11.794Z,15.00
2022-09-09T20:36:38.861Z,15.00
2022-09-09T20:39:10.690Z,14.90
2022-09-09T20:41:38.554Z,14.90
2022-09-09T20:44:14.293Z,14.90
2022-09-09T20:46:43.087Z,14.90
2022-09-09T20:49:12.250Z,14.90
2022-09-09T20:51:39.136Z,14.90
2022-09-09T20:54:10.608Z,14.90
2022-09-09T20:56:42.345Z,14.80
2022-09-09T20:59:12.780Z,14.80
2022-09-09T21:01:40.802Z,14.80
2022-09-09T21:04:09.643Z,14.80
2022-09-09T21:06:37.225Z,14.90
2022-09-09T21:09:04.365Z,14.90
2022-09-09T21:11:31.387Z,14.90
2022-09-09T21:13:58.259Z,14.90
2022-09-09T21:16:25.221Z,15.00
2022-09-09T21:18:52.039Z,15.00
2022-09-09T21:21:21.598Z,15.00
2022-09-09T21:23:48.901Z,15.00
2022-09-09T21:26:15.654Z,15.10
2022-09-09T21:28:43.688Z,15.00
2022-09-09T21:31:14.813Z,15.00
2022-09-09T21:33:42.209Z,15.10
2022-09-09T21:36:10.879Z,15.10
2022-09-09T21:38:39.669Z,15.10
2022-09-09T21:41:07.552Z,15.00
2022-09-09T21:43:34.643Z,14.90
2022-09-09T21:46:05.814Z,14.90
2022-09-09T21:48:32.767Z,14.90
2022-09-09T21:51:02.422Z,14.80
2022-09-09T21:53:29.021Z,14.80
2022-09-09T21:56:00.462Z,14.70
2022-09-09T21:58:27.100Z,14.60
2022-09-09T22:00:53.780Z,14.60
2022-09-09T22:03:21.020Z,14.60
2022-09-09T22:05:51.925Z,14.50
2022-09-09T22:08:20.514Z,14.40
2022-09-09T22:10:47.210Z,14.50
2022-09-09T22:13:17.092Z,14.40
2022-09-09T22:15:44.939Z,14.40
2022-09-09T22:18:13.206Z,14.30
2022-09-09T22:20:41.760Z,14.30
2022-09-09T22:23:09.500Z,14.20
2022-09-09T22:25:36.959Z,14.20
2022-09-09T22:28:04.415Z,14.10
2022-09-09T22:30:31.152Z,14.10
2022-09-09T22:32:58.009Z,14.00
2022-09-09T22:35:24.858Z,14.00
2022-09-09T22:37:51.530Z,14.00
2022-09-09T22:40:18.194Z,13.90
2022-09-09T22:42:46.611Z,13.90
2022-09-09T22:45:16.511Z,13.90
2022-09-09T22:47:43.115Z,13.80
2022-09-09T22:50:09.920Z,13.80
2022-09-09T22:52:37.134Z,13.80
2022-09-09T22:55:03.886Z,13.80
2022-09-09T22:57:31.120Z,13.80
2022-09-09T22:59:57.719Z,13.80
2022-09-09T23:02:26.537Z,13.70
2022-09-09T23:04:53.169Z,13.60
2022-09-09T23:07:23.448Z,13.50
2022-09-09T23:09:50.457Z,13.50
2022-09-09T23:12:19.972Z,13.50
2022-09-09T23:14:46.811Z,13.50
2022-09-09T23:17:17.408Z,13.40
2022-09-09T23:19:44.045Z,13.40
2022-09-09T23:22:11.493Z,13.40
2022-09-09T23:24:38.193Z,13.50
2022-09-09T23:27:04.827Z,13.40
2022-09-09T23:29:31.458Z,13.30
2022-09-09T23:31:58.073Z,13.30
2022-09-09T23:34:24.681Z,13.20
2022-09-09T23:36:51.576Z,13.20
2022-09-09T23:39:18.259Z,13.20
2022-09-09T23:41:44.912Z,13.20
2022-09-09T23:44:12.800Z,13.20
2022-09-09T23:46:39.768Z,13.20
2022-09-09T23:49:08.323Z,13.30
2022-09-09T23:51:35.549Z,13.30
2022-09-09T23:54:04.846Z,13.30
2022-09-09T23:56:37.121Z,13.20
2022-09-09T23:59:05.046Z,13.20
